Eskdale, New Zealand
Current Conditions -  °F | °C
As of 7:30 AM on Friday 28 Nov 2014 (Local Time) from NZWN Reporting Station
Clear Clear  
Wind Chill: 59°   Ceiling: Unl
Heat Index: 59°   Visibility: 6mi
Dew Point: 41°   Wind: 14mph
Humidity: 51%   Direction: 330°NNW
Pressure: 29.62"   Gusts: 25mph
Location:  39.39°S, 176.83°E
Report Text: NZWN 271930Z AUTO 33012G22KT 300V010 9999 NCD 15/05 Q1003 NOSIG
Loading
Personal Weather Stations






























Interactive Weather Map New forecast layout! Learn more

10-Day Weather Forecast

Advertisements
Track Severe Weather on mobile